Maddensville, Pennsylvania
Current Conditions -  °F | °C
As of 10:04 AM on Wednesday 22 Oct 2014 (Local Time) from KAOO Reporting Station
Overcast Overcast  
Wind Chill: 43°   Ceiling: 1500
Heat Index: 48°   Visibility: 10mi
Dew Point: 44°   Wind: 12mph
Humidity: 86%   Direction: 360°N
Pressure: 30.06"   Gusts: NA
Location:  40.2435°N, 77.9084°W
Report Text: KAOO 221404Z AUTO 36010KT 10SM OVC015 09/07 A3006 RMK AO2 T00890067
Loading
Personal Weather Stations






























Interactive Weather Map
Tropical Storm Tracking
New forecast layout! Learn more

10-Day Weather Forecast

Advertisements
Track Severe Weather on mobile